sensor_id;sensor_type;location;lat;lon;timestamp;pressure;altitude;pressure_sealevel;temperature;humidity
43820;BME280;67762;52.476;6.046;2023-06-19T00:02:09;100715.69;;;23.11;47.89
43820;BME280;67762;52.476;6.046;2023-06-19T00:04:34;100718.41;;;23.11;47.95
43820;BME280;67762;52.476;6.046;2023-06-19T00:09:26;100727.66;;;23.10;47.82
43820;BME280;67762;52.476;6.046;2023-06-19T00:11:52;100730.88;;;23.07;47.90
43820;BME280;67762;52.476;6.046;2023-06-19T00:14:17;100717.03;;;23.09;47.91
43820;BME280;67762;52.476;6.046;2023-06-19T00:16:44;100723.28;;;23.09;47.80
43820;BME280;67762;52.476;6.046;2023-06-19T00:19:10;100724.34;;;23.08;47.69
43820;BME280;67762;52.476;6.046;2023-06-19T00:21:37;100723.78;;;23.06;47.68
43820;BME280;67762;52.476;6.046;2023-06-19T00:24:04;100722.47;;;23.09;47.55
43820;BME280;67762;52.476;6.046;2023-06-19T00:26:30;100713.31;;;23.15;47.36
43820;BME280;67762;52.476;6.046;2023-06-19T00:28:56;100716.34;;;23.18;47.29
43820;BME280;67762;52.476;6.046;2023-06-19T00:31:21;100712.81;;;23.18;47.46
43820;BME280;67762;52.476;6.046;2023-06-19T00:33:48;100706.53;;;23.17;47.39
43820;BME280;67762;52.476;6.046;2023-06-19T00:36:16;100718.75;;;23.15;47.38
43820;BME280;67762;52.476;6.046;2023-06-19T00:38:45;100711.66;;;23.14;47.73
43820;BME280;67762;52.476;6.046;2023-06-19T00:41:11;100711.09;;;23.12;47.73
43820;BME280;67762;52.476;6.046;2023-06-19T00:43:37;100713.25;;;23.10;47.86
43820;BME280;67762;52.476;6.046;2023-06-19T00:46:03;100714.31;;;23.09;47.69
43820;BME280;67762;52.476;6.046;2023-06-19T00:48:30;100716.19;;;23.08;47.73
43820;BME280;67762;52.476;6.046;2023-06-19T00:50:57;100716.19;;;23.08;47.86
43820;BME280;67762;52.476;6.046;2023-06-19T00:53:23;100712.91;;;23.06;47.66
43820;BME280;67762;52.476;6.046;2023-06-19T00:55:50;100719.69;;;23.04;48.06
43820;BME280;67762;52.476;6.046;2023-06-19T00:58:20;100714.47;;;23.02;48.00
43820;BME280;67762;52.476;6.046;2023-06-19T01:00:47;100721.00;;;23.01;48.37
43820;BME280;67762;52.476;6.046;2023-06-19T01:03:14;100722.31;;;22.99;48.29
43820;BME280;67762;52.476;6.046;2023-06-19T01:05:39;100719.84;;;22.97;48.77
43820;BME280;67762;52.476;6.046;2023-06-19T01:08:37;100716.53;;;22.95;48.75
43820;BME280;67762;52.476;6.046;2023-06-19T01:11:07;100711.66;;;22.97;48.64
43820;BME280;67762;52.476;6.046;2023-06-19T01:13:56;100720.09;;;22.96;49.05
43820;BME280;67762;52.476;6.046;2023-06-19T01:16:26;100726.34;;;22.96;49.01
43820;BME280;67762;52.476;6.046;2023-06-19T01:18:52;100713.81;;;22.95;49.14
43820;BME280;67762;52.476;6.046;2023-06-19T01:21:19;100727.66;;;22.94;49.45
43820;BME280;67762;52.476;6.046;2023-06-19T01:23:45;100727.09;;;22.92;49.71
43820;BME280;67762;52.476;6.046;2023-06-19T01:26:11;100719.19;;;22.90;49.67
43820;BME280;67762;52.476;6.046;2023-06-19T01:28:39;100726.19;;;22.86;50.08
43820;BME280;67762;52.476;6.046;2023-06-19T01:31:17;100729.16;;;22.85;50.09
43820;BME280;67762;52.476;6.046;2023-06-19T01:33:45;100718.84;;;22.87;50.37
43820;BME280;67762;52.476;6.046;2023-06-19T01:36:15;100719.34;;;22.84;50.62
43820;BME280;67762;52.476;6.046;2023-06-19T01:38:44;100716.53;;;22.79;50.75
43820;BME280;67762;52.476;6.046;2023-06-19T01:41:11;100724.13;;;22.77;50.84
43820;BME280;67762;52.476;6.046;2023-06-19T01:43:37;100726.50;;;22.73;50.89
43820;BME280;67762;52.476;6.046;2023-06-19T01:46:03;100728.56;;;22.66;51.42
43820;BME280;67762;52.476;6.046;2023-06-19T01:48:29;100722.88;;;22.67;51.65
43820;BME280;67762;52.476;6.046;2023-06-19T01:50:55;100720.66;;;22.64;51.68
43820;BME280;67762;52.476;6.046;2023-06-19T01:53:21;100724.09;;;22.60;51.49
43820;BME280;67762;52.476;6.046;2023-06-19T01:55:46;100734.84;;;22.55;52.03
43820;BME280;67762;52.476;6.046;2023-06-19T01:58:12;100736.91;;;22.48;52.50
43820;BME280;67762;52.476;6.046;2023-06-19T02:00:38;100736.00;;;22.42;52.61
43820;BME280;67762;52.476;6.046;2023-06-19T02:03:04;100744.63;;;22.39;52.72
43820;BME280;67762;52.476;6.046;2023-06-19T02:05:30;100742.41;;;22.36;53.12
43820;BME280;67762;52.476;6.046;2023-06-19T02:07:56;100741.81;;;22.34;53.35
43820;BME280;67762;52.476;6.046;2023-06-19T02:10:22;100738.28;;;22.34;53.24
43820;BME280;67762;52.476;6.046;2023-06-19T02:12:47;100745.59;;;22.33;53.94
43820;BME280;67762;52.476;6.046;2023-06-19T02:15:13;100738.38;;;22.39;53.88
43820;BME280;67762;52.476;6.046;2023-06-19T02:17:39;100736.38;;;22.34;53.96
43820;BME280;67762;52.476;6.046;2023-06-19T02:20:05;100741.56;;;22.36;54.54
43820;BME280;67762;52.476;6.046;2023-06-19T02:22:39;100732.09;;;22.38;54.62
43820;BME280;67762;52.476;6.046;2023-06-19T02:25:06;100729.63;;;22.37;54.69
43820;BME280;67762;52.476;6.046;2023-06-19T02:27:31;100740.16;;;22.33;55.13
43820;BME280;67762;52.476;6.046;2023-06-19T02:29:58;100747.50;;;22.33;55.51
43820;BME280;67762;52.476;6.046;2023-06-19T02:32:24;100749.63;;;22.31;55.65
43820;BME280;67762;52.476;6.046;2023-06-19T02:34:50;100749.28;;;22.27;56.12
43820;BME280;67762;52.476;6.046;2023-06-19T02:37:15;100755.47;;;22.23;56.80
43820;BME280;67762;52.476;6.046;2023-06-19T02:39:41;100747.13;;;22.12;56.92
43820;BME280;67762;52.476;6.046;2023-06-19T02:42:07;100764.28;;;22.01;57.42
43820;BME280;67762;52.476;6.046;2023-06-19T02:44:33;100757.56;;;21.92;57.85
43820;BME280;67762;52.476;6.046;2023-06-19T02:46:58;100768.41;;;21.81;58.15
43820;BME280;67762;52.476;6.046;2023-06-19T02:49:24;100773.88;;;21.69;58.79
43820;BME280;67762;52.476;6.046;2023-06-19T02:51:49;100779.09;;;21.59;58.60
43820;BME280;67762;52.476;6.046;2023-06-19T02:54:15;100778.88;;;21.49;59.14
43820;BME280;67762;52.476;6.046;2023-06-19T02:56:40;100774.00;;;21.39;59.94
43820;BME280;67762;52.476;6.046;2023-06-19T02:59:06;100783.34;;;21.32;60.26
43820;BME280;67762;52.476;6.046;2023-06-19T03:01:32;100776.84;;;21.21;60.84
43820;BME280;67762;52.476;6.046;2023-06-19T03:03:57;100784.03;;;21.16;60.60
43820;BME280;67762;52.476;6.046;2023-06-19T03:06:23;100789.31;;;21.11;60.69
43820;BME280;67762;52.476;6.046;2023-06-19T03:08:48;100789.88;;;21.01;61.28
43820;BME280;67762;52.476;6.046;2023-06-19T03:11:14;100785.84;;;20.92;61.34
43820;BME280;67762;52.476;6.046;2023-06-19T03:13:49;100783.59;;;20.89;62.58
43820;BME280;67762;52.476;6.046;2023-06-19T03:16:15;100789.81;;;20.78;62.72
43820;BME280;67762;52.476;6.046;2023-06-19T03:18:42;100781.81;;;20.71;62.74
43820;BME280;67762;52.476;6.046;2023-06-19T03:21:10;100792.94;;;20.63;63.77
43820;BME280;67762;52.476;6.046;2023-06-19T03:23:36;100804.41;;;20.65;63.96
43820;BME280;67762;52.476;6.046;2023-06-19T03:26:02;100801.09;;;20.63;64.12
43820;BME280;67762;52.476;6.046;2023-06-19T03:28:28;100794.84;;;20.63;64.67
43820;BME280;67762;52.476;6.046;2023-06-19T03:30:54;100793.06;;;20.57;65.11
43820;BME280;67762;52.476;6.046;2023-06-19T03:33:22;100795.63;;;20.52;65.35
43820;BME280;67762;52.476;6.046;2023-06-19T03:35:48;100812.34;;;20.49;65.11
43820;BME280;67762;52.476;6.046;2023-06-19T03:38:52;100811.97;;;20.45;65.63
43820;BME280;67762;52.476;6.046;2023-06-19T03:41:23;100816.56;;;20.45;65.83
43820;BME280;67762;52.476;6.046;2023-06-19T03:43:49;100816.19;;;20.41;66.32
43820;BME280;67762;52.476;6.046;2023-06-19T03:46:15;100817.72;;;20.37;66.34
43820;BME280;67762;52.476;6.046;2023-06-19T03:48:41;100809.22;;;20.33;67.44
43820;BME280;67762;52.476;6.046;2023-06-19T03:51:06;100826.53;;;20.32;67.70
43820;BME280;67762;52.476;6.046;2023-06-19T03:53:32;100831.34;;;20.30;67.66
43820;BME280;67762;52.476;6.046;2023-06-19T03:55:57;100832.19;;;20.31;68.34
43820;BME280;67762;52.476;6.046;2023-06-19T03:58:23;100833.47;;;20.28;68.14
43820;BME280;67762;52.476;6.046;2023-06-19T04:00:49;100831.81;;;20.27;68.63
43820;BME280;67762;52.476;6.046;2023-06-19T04:03:14;100831.34;;;20.30;68.56
43820;BME280;67762;52.476;6.046;2023-06-19T04:05:40;100830.06;;;20.33;68.94
43820;BME280;67762;52.476;6.046;2023-06-19T04:08:07;100830.75;;;20.28;68.86
43820;BME280;67762;52.476;6.046;2023-06-19T04:10:33;100835.34;;;20.28;69.34
43820;BME280;67762;52.476;6.046;2023-06-19T04:12:59;100836.38;;;20.27;69.49
43820;BME280;67762;52.476;6.046;2023-06-19T04:15:25;100840.06;;;20.32;69.31
43820;BME280;67762;52.476;6.046;2023-06-19T04:17:50;100835.28;;;20.34;69.67
43820;BME280;67762;52.476;6.046;2023-06-19T04:20:16;100822.06;;;20.38;69.36
43820;BME280;67762;52.476;6.046;2023-06-19T04:22:42;100837.88;;;20.41;69.82
43820;BME280;67762;52.476;6.046;2023-06-19T04:25:08;100843.09;;;20.42;69.48
43820;BME280;67762;52.476;6.046;2023-06-19T04:27:35;100842.63;;;20.46;69.64
43820;BME280;67762;52.476;6.046;2023-06-19T04:30:04;100849.63;;;20.53;69.83
43820;BME280;67762;52.476;6.046;2023-06-19T04:32:32;100848.84;;;20.64;69.51
43820;BME280;67762;52.476;6.046;2023-06-19T04:34:58;100842.03;;;20.73;69.81
43820;BME280;67762;52.476;6.046;2023-06-19T04:37:24;100853.63;;;20.80;68.88
43820;BME280;67762;52.476;6.046;2023-06-19T04:39:49;100858.25;;;20.91;68.95
43820;BME280;67762;52.476;6.046;2023-06-19T04:42:17;100855.22;;;20.99;69.02
43820;BME280;67762;52.476;6.046;2023-06-19T04:44:46;100859.72;;;21.06;69.10
43820;BME280;67762;52.476;6.046;2023-06-19T04:47:13;100865.28;;;21.11;68.61
43820;BME280;67762;52.476;6.046;2023-06-19T04:49:38;100857.53;;;21.14;68.93
43820;BME280;67762;52.476;6.046;2023-06-19T04:52:04;100869.22;;;21.15;68.96
43820;BME280;67762;52.476;6.046;2023-06-19T04:54:30;100870.72;;;21.11;69.15
43820;BME280;67762;52.476;6.046;2023-06-19T04:56:58;100874.06;;;21.13;68.56
43820;BME280;67762;52.476;6.046;2023-06-19T04:59:23;100871.34;;;21.13;68.77
43820;BME280;67762;52.476;6.046;2023-06-19T05:01:49;100884.91;;;21.13;69.25
43820;BME280;67762;52.476;6.046;2023-06-19T05:04:19;100879.03;;;21.16;69.06
43820;BME280;67762;52.476;6.046;2023-06-19T05:06:45;100877.84;;;21.23;68.94
43820;BME280;67762;52.476;6.046;2023-06-19T05:09:10;100892.59;;;21.27;69.28
43820;BME280;67762;52.476;6.046;2023-06-19T05:11:36;100889.19;;;21.32;69.20
43820;BME280;67762;52.476;6.046;2023-06-19T05:14:02;61604.63;;;-141.99;100.00
43820;BME280;67762;52.476;6.046;2023-06-19T05:16:28;61604.63;;;-141.99;100.00
43820;BME280;67762;52.476;6.046;2023-06-19T05:18:54;61604.63;;;-141.99;100.00
43820;BME280;67762;52.476;6.046;2023-06-19T05:21:20;61604.63;;;-141.99;100.00
43820;BME280;67762;52.476;6.046;2023-06-19T05:23:45;61604.63;;;-141.99;100.00
43820;BME280;67762;52.476;6.046;2023-06-19T05:26:19;61604.63;;;-141.99;100.00
43820;BME280;67762;52.476;6.046;2023-06-19T05:28:46;61604.63;;;-141.99;100.00
43820;BME280;67762;52.476;6.046;2023-06-19T05:31:11;61604.63;;;-141.99;100.00
43820;BME280;67762;52.476;6.046;2023-06-19T05:33:37;61604.63;;;-141.99;100.00
43820;BME280;67762;52.476;6.046;2023-06-19T05:36:03;61604.63;;;-141.99;100.00
43820;BME280;67762;52.476;6.046;2023-06-19T05:38:28;61604.63;;;-141.99;100.00
43820;BME280;67762;52.476;6.046;2023-06-19T05:40:56;61604.63;;;-141.99;100.00
43820;BME280;67762;52.476;6.046;2023-06-19T05:43:22;61604.63;;;-141.99;100.00
43820;BME280;67762;52.476;6.046;2023-06-19T05:45:48;61604.63;;;-141.99;100.00
43820;BME280;67762;52.476;6.046;2023-06-19T05:48:13;61604.63;;;-141.99;100.00
43820;BME280;67762;52.476;6.046;2023-06-19T05:50:39;61604.63;;;-141.99;100.00
43820;BME280;67762;52.476;6.046;2023-06-19T05:53:05;61604.63;;;-141.99;100.00
43820;BME280;67762;52.476;6.046;2023-06-19T05:55:31;61604.63;;;-141.99;100.00
43820;BME280;67762;52.476;6.046;2023-06-19T05:57:56;61604.63;;;-141.99;100.00
43820;BME280;67762;52.476;6.046;2023-06-19T06:00:22;61604.63;;;-141.99;100.00
43820;BME280;67762;52.476;6.046;2023-06-19T06:02:48;61604.63;;;-141.99;100.00
43820;BME280;67762;52.476;6.046;2023-06-19T06:05:15;61604.63;;;-141.99;100.00
43820;BME280;67762;52.476;6.046;2023-06-19T06:07:43;61604.63;;;-141.99;100.00
43820;BME280;67762;52.476;6.046;2023-06-19T06:10:09;61604.63;;;-141.99;100.00
43820;BME280;67762;52.476;6.046;2023-06-19T06:12:34;61604.63;;;-141.99;100.00
43820;BME280;67762;52.476;6.046;2023-06-19T06:15:05;61604.63;;;-141.99;100.00
43820;BME280;67762;52.476;6.046;2023-06-19T06:17:31;61604.63;;;-141.99;100.00
43820;BME280;67762;52.476;6.046;2023-06-19T06:19:56;61604.63;;;-141.99;100.00
43820;BME280;67762;52.476;6.046;2023-06-19T06:22:22;61604.63;;;-141.99;100.00
43820;BME280;67762;52.476;6.046;2023-06-19T06:24:48;61604.63;;;-141.99;100.00
43820;BME280;67762;52.476;6.046;2023-06-19T06:27:13;61604.63;;;-141.99;100.00
43820;BME280;67762;52.476;6.046;2023-06-19T06:29:39;61604.63;;;-141.99;100.00
43820;BME280;67762;52.476;6.046;2023-06-19T06:32:06;61604.63;;;-141.99;100.00
43820;BME280;67762;52.476;6.046;2023-06-19T06:34:33;61604.63;;;-141.99;100.00
43820;BME280;67762;52.476;6.046;2023-06-19T06:37:00;61604.63;;;-141.99;100.00
43820;BME280;67762;52.476;6.046;2023-06-19T06:39:26;61604.63;;;-141.99;100.00
43820;BME280;67762;52.476;6.046;2023-06-19T06:41:51;61604.63;;;-141.99;100.00
43820;BME280;67762;52.476;6.046;2023-06-19T06:44:17;61604.63;;;-141.99;100.00
43820;BME280;67762;52.476;6.046;2023-06-19T06:46:43;61604.63;;;-141.99;100.00
43820;BME280;67762;52.476;6.046;2023-06-19T06:49:08;61604.63;;;-141.99;100.00
43820;BME280;67762;52.476;6.046;2023-06-19T06:51:34;61604.63;;;-141.99;100.00
43820;BME280;67762;52.476;6.046;2023-06-19T06:53:59;61604.63;;;-141.99;100.00
43820;BME280;67762;52.476;6.046;2023-06-19T06:56:25;61604.63;;;-141.99;100.00
43820;BME280;67762;52.476;6.046;2023-06-19T06:58:51;61604.63;;;-141.99;100.00
43820;BME280;67762;52.476;6.046;2023-06-19T07:01:17;61604.63;;;-141.99;100.00
43820;BME280;67762;52.476;6.046;2023-06-19T07:03:42;61604.63;;;-141.99;100.00
43820;BME280;67762;52.476;6.046;2023-06-19T07:06:08;61604.63;;;-141.99;100.00
43820;BME280;67762;52.476;6.046;2023-06-19T07:08:34;61604.63;;;-141.99;100.00
43820;BME280;67762;52.476;6.046;2023-06-19T07:11:00;61604.63;;;-141.99;100.00
43820;BME280;67762;52.476;6.046;2023-06-19T07:13:26;61604.63;;;-141.99;100.00
43820;BME280;67762;52.476;6.046;2023-06-19T07:15:51;61604.63;;;-141.99;100.00
43820;BME280;67762;52.476;6.046;2023-06-19T07:18:17;61604.63;;;-141.99;100.00
43820;BME280;67762;52.476;6.046;2023-06-19T07:20:48;61604.63;;;-141.99;100.00
43820;BME280;67762;52.476;6.046;2023-06-19T07:23:14;61604.63;;;-141.99;100.00
43820;BME280;67762;52.476;6.046;2023-06-19T07:25:40;61604.63;;;-141.99;100.00
43820;BME280;67762;52.476;6.046;2023-06-19T07:28:06;61604.63;;;-141.99;100.00
43820;BME280;67762;52.476;6.046;2023-06-19T07:30:31;61604.63;;;-141.99;100.00
43820;BME280;67762;52.476;6.046;2023-06-19T07:32:57;61604.63;;;-141.99;100.00
43820;BME280;67762;52.476;6.046;2023-06-19T07:35:23;61604.63;;;-141.99;100.00
43820;BME280;67762;52.476;6.046;2023-06-19T07:37:48;61604.63;;;-141.99;100.00
43820;BME280;67762;52.476;6.046;2023-06-19T07:40:14;61604.63;;;-141.99;100.00
43820;BME280;67762;52.476;6.046;2023-06-19T07:42:40;61604.63;;;-141.99;100.00
43820;BME280;67762;52.476;6.046;2023-06-19T07:45:06;61604.63;;;-141.99;100.00
43820;BME280;67762;52.476;6.046;2023-06-19T07:47:31;61604.63;;;-141.99;100.00
43820;BME280;67762;52.476;6.046;2023-06-19T07:49:57;61604.63;;;-141.99;100.00
43820;BME280;67762;52.476;6.046;2023-06-19T07:52:23;61604.63;;;-141.99;100.00
43820;BME280;67762;52.476;6.046;2023-06-19T07:54:53;61604.63;;;-141.99;100.00
43820;BME280;67762;52.476;6.046;2023-06-19T07:57:20;61604.63;;;-141.99;100.00
43820;BME280;67762;52.476;6.046;2023-06-19T07:59:47;61604.63;;;-141.99;100.00
43820;BME280;67762;52.476;6.046;2023-06-19T08:02:13;61604.63;;;-141.99;100.00
43820;BME280;67762;52.476;6.046;2023-06-19T08:04:39;61604.63;;;-141.99;100.00
43820;BME280;67762;52.476;6.046;2023-06-19T08:07:05;61604.63;;;-141.99;100.00
43820;BME280;67762;52.476;6.046;2023-06-19T08:09:30;61604.63;;;-141.99;100.00
43820;BME280;67762;52.476;6.046;2023-06-19T08:11:57;61604.63;;;-141.99;100.00
43820;BME280;67762;52.476;6.046;2023-06-19T08:14:22;61604.63;;;-141.99;100.00
43820;BME280;67762;52.476;6.046;2023-06-19T08:16:48;61604.63;;;-141.99;100.00
43820;BME280;67762;52.476;6.046;2023-06-19T08:19:14;61604.63;;;-141.99;100.00
43820;BME280;67762;52.476;6.046;2023-06-19T08:21:39;61604.63;;;-141.99;100.00
43820;BME280;67762;52.476;6.046;2023-06-19T08:24:06;61604.63;;;-141.99;100.00
43820;BME280;67762;52.476;6.046;2023-06-19T08:26:31;61604.63;;;-141.99;100.00
43820;BME280;67762;52.476;6.046;2023-06-19T08:28:57;61604.63;;;-141.99;100.00
43820;BME280;67762;52.476;6.046;2023-06-19T08:31:23;61604.63;;;-141.99;100.00
43820;BME280;67762;52.476;6.046;2023-06-19T08:33:56;61604.63;;;-141.99;100.00
43820;BME280;67762;52.476;6.046;2023-06-19T08:36:23;61604.63;;;-141.99;100.00
43820;BME280;67762;52.476;6.046;2023-06-19T08:38:49;61604.63;;;-141.99;100.00
43820;BME280;67762;52.476;6.046;2023-06-19T08:41:16;61604.63;;;-141.99;100.00
43820;BME280;67762;52.476;6.046;2023-06-19T08:43:44;61604.63;;;-141.99;100.00
43820;BME280;67762;52.476;6.046;2023-06-19T08:48:37;61604.63;;;-141.99;100.00
43820;BME280;67762;52.476;6.046;2023-06-19T08:51:04;61604.63;;;-141.99;100.00
43820;BME280;67762;52.476;6.046;2023-06-19T08:53:47;61604.63;;;-141.99;100.00
43820;BME280;67762;52.476;6.046;2023-06-19T08:56:13;61604.63;;;-141.99;100.00
43820;BME280;67762;52.476;6.046;2023-06-19T08:58:39;61604.63;;;-141.99;100.00
43820;BME280;67762;52.476;6.046;2023-06-19T09:01:05;61604.63;;;-141.99;100.00
43820;BME280;67762;52.476;6.046;2023-06-19T09:03:30;61604.63;;;-141.99;100.00
43820;BME280;67762;52.476;6.046;2023-06-19T09:05:56;61604.63;;;-141.99;100.00
43820;BME280;67762;52.476;6.046;2023-06-19T09:08:22;61604.63;;;-141.99;100.00
43820;BME280;67762;52.476;6.046;2023-06-19T09:10:58;61604.63;;;-141.99;100.00
43820;BME280;67762;52.476;6.046;2023-06-19T09:13:25;61604.63;;;-141.99;100.00
43820;BME280;67762;52.476;6.046;2023-06-19T09:16:01;61604.63;;;-141.99;100.00
43820;BME280;67762;52.476;6.046;2023-06-19T09:18:32;61604.63;;;-141.99;100.00
43820;BME280;67762;52.476;6.046;2023-06-19T09:21:17;61604.63;;;-141.99;100.00
43820;BME280;67762;52.476;6.046;2023-06-19T09:23:44;61604.63;;;-141.99;100.00
43820;BME280;67762;52.476;6.046;2023-06-19T09:26:14;61604.63;;;-141.99;100.00
43820;BME280;67762;52.476;6.046;2023-06-19T09:28:40;61604.63;;;-141.99;100.00
43820;BME280;67762;52.476;6.046;2023-06-19T09:31:08;61604.63;;;-141.99;100.00
43820;BME280;67762;52.476;6.046;2023-06-19T09:33:35;61604.63;;;-141.99;100.00
43820;BME280;67762;52.476;6.046;2023-06-19T09:36:04;61604.63;;;-141.99;100.00
43820;BME280;67762;52.476;6.046;2023-06-19T09:38:31;61604.63;;;-141.99;100.00
43820;BME280;67762;52.476;6.046;2023-06-19T09:41:01;61604.63;;;-141.99;100.00
43820;BME280;67762;52.476;6.046;2023-06-19T09:43:37;61604.63;;;-141.99;100.00
43820;BME280;67762;52.476;6.046;2023-06-19T09:46:04;61604.63;;;-141.99;100.00
43820;BME280;67762;52.476;6.046;2023-06-19T09:48:32;61604.63;;;-141.99;100.00
43820;BME280;67762;52.476;6.046;2023-06-19T09:51:20;61604.63;;;-141.99;100.00
43820;BME280;67762;52.476;6.046;2023-06-19T09:53:50;61604.63;;;-141.99;100.00
43820;BME280;67762;52.476;6.046;2023-06-19T09:56:17;61604.63;;;-141.99;100.00
43820;BME280;67762;52.476;6.046;2023-06-19T09:58:48;61604.63;;;-141.99;100.00
43820;BME280;67762;52.476;6.046;2023-06-19T10:01:16;61604.63;;;-141.99;100.00
43820;BME280;67762;52.476;6.046;2023-06-19T10:03:44;61604.63;;;-141.99;100.00
43820;BME280;67762;52.476;6.046;2023-06-19T10:06:14;61604.63;;;-141.99;100.00
43820;BME280;67762;52.476;6.046;2023-06-19T10:08:45;61604.63;;;-141.99;100.00
43820;BME280;67762;52.476;6.046;2023-06-19T10:11:11;61604.63;;;-141.99;100.00
43820;BME280;67762;52.476;6.046;2023-06-19T10:13:39;61604.63;;;-141.99;100.00
43820;BME280;67762;52.476;6.046;2023-06-19T10:16:06;61604.63;;;-141.99;100.00
43820;BME280;67762;52.476;6.046;2023-06-19T10:18:32;61604.63;;;-141.99;100.00
43820;BME280;67762;52.476;6.046;2023-06-19T10:20:58;61604.63;;;-141.99;100.00
43820;BME280;67762;52.476;6.046;2023-06-19T10:23:25;61604.63;;;-141.99;100.00
43820;BME280;67762;52.476;6.046;2023-06-19T10:28:33;61604.63;;;-141.99;100.00
43820;BME280;67762;52.476;6.046;2023-06-19T10:31:04;61604.63;;;-141.99;100.00
43820;BME280;67762;52.476;6.046;2023-06-19T10:33:31;61604.63;;;-141.99;100.00
43820;BME280;67762;52.476;6.046;2023-06-19T10:35:59;61604.63;;;-141.99;100.00
43820;BME280;67762;52.476;6.046;2023-06-19T10:38:25;61604.63;;;-141.99;100.00
43820;BME280;67762;52.476;6.046;2023-06-19T10:40:51;61604.63;;;-141.99;100.00
43820;BME280;67762;52.476;6.046;2023-06-19T10:43:21;61604.63;;;-141.99;100.00
43820;BME280;67762;52.476;6.046;2023-06-19T10:45:50;61604.63;;;-141.99;100.00
43820;BME280;67762;52.476;6.046;2023-06-19T10:48:23;61604.63;;;-141.99;100.00
43820;BME280;67762;52.476;6.046;2023-06-19T10:50:50;61604.63;;;-141.99;100.00
43820;BME280;67762;52.476;6.046;2023-06-19T10:53:29;61604.63;;;-141.99;100.00
43820;BME280;67762;52.476;6.046;2023-06-19T10:56:00;61604.63;;;-141.99;100.00
43820;BME280;67762;52.476;6.046;2023-06-19T10:58:27;61604.63;;;-141.99;100.00
43820;BME280;67762;52.476;6.046;2023-06-19T11:00:53;61604.63;;;-141.99;100.00
43820;BME280;67762;52.476;6.046;2023-06-19T11:03:20;61604.63;;;-141.99;100.00
43820;BME280;67762;52.476;6.046;2023-06-19T11:05:47;61604.63;;;-141.99;100.00
43820;BME280;67762;52.476;6.046;2023-06-19T11:08:20;61604.63;;;-141.99;100.00
43820;BME280;67762;52.476;6.046;2023-06-19T11:10:47;61604.63;;;-141.99;100.00
43820;BME280;67762;52.476;6.046;2023-06-19T11:13:20;61604.63;;;-141.99;100.00
43820;BME280;67762;52.476;6.046;2023-06-19T11:15:47;61604.63;;;-141.99;100.00
43820;BME280;67762;52.476;6.046;2023-06-19T11:18:15;61604.63;;;-141.99;100.00
43820;BME280;67762;52.476;6.046;2023-06-19T11:20:48;61604.63;;;-141.99;100.00
43820;BME280;67762;52.476;6.046;2023-06-19T11:23:15;61604.63;;;-141.99;100.00
43820;BME280;67762;52.476;6.046;2023-06-19T11:25:42;61604.63;;;-141.99;100.00
43820;BME280;67762;52.476;6.046;2023-06-19T11:28:15;61604.63;;;-141.99;100.00
43820;BME280;67762;52.476;6.046;2023-06-19T11:30:43;61604.63;;;-141.99;100.00
43820;BME280;67762;52.476;6.046;2023-06-19T11:33:35;61604.63;;;-141.99;100.00
43820;BME280;67762;52.476;6.046;2023-06-19T11:36:03;61604.63;;;-141.99;100.00
43820;BME280;67762;52.476;6.046;2023-06-19T11:38:29;61604.63;;;-141.99;100.00
43820;BME280;67762;52.476;6.046;2023-06-19T11:40:56;61604.63;;;-141.99;100.00
43820;BME280;67762;52.476;6.046;2023-06-19T11:43:30;61604.63;;;-141.99;100.00
43820;BME280;67762;52.476;6.046;2023-06-19T11:46:07;61604.63;;;-141.99;100.00
43820;BME280;67762;52.476;6.046;2023-06-19T11:48:36;61604.63;;;-141.99;100.00
43820;BME280;67762;52.476;6.046;2023-06-19T11:51:03;61604.63;;;-141.99;100.00
43820;BME280;67762;52.476;6.046;2023-06-19T11:53:28;61604.63;;;-141.99;100.00
43820;BME280;67762;52.476;6.046;2023-06-19T11:55:55;61604.63;;;-141.99;100.00
43820;BME280;67762;52.476;6.046;2023-06-19T11:58:21;61604.63;;;-141.99;100.00
43820;BME280;67762;52.476;6.046;2023-06-19T12:00:47;61604.63;;;-141.99;100.00
43820;BME280;67762;52.476;6.046;2023-06-19T12:03:13;61604.63;;;-141.99;100.00
43820;BME280;67762;52.476;6.046;2023-06-19T12:05:39;61604.63;;;-141.99;100.00
43820;BME280;67762;52.476;6.046;2023-06-19T12:08:05;61604.63;;;-141.99;100.00
43820;BME280;67762;52.476;6.046;2023-06-19T12:10:32;61604.63;;;-141.99;100.00
43820;BME280;67762;52.476;6.046;2023-06-19T12:12:58;61604.63;;;-141.99;100.00
43820;BME280;67762;52.476;6.046;2023-06-19T12:15:24;61604.63;;;-141.99;100.00
43820;BME280;67762;52.476;6.046;2023-06-19T12:17:51;61604.63;;;-141.99;100.00
43820;BME280;67762;52.476;6.046;2023-06-19T12:20:17;61604.63;;;-141.99;100.00
43820;BME280;67762;52.476;6.046;2023-06-19T12:22:43;61604.63;;;-141.99;100.00
43820;BME280;67762;52.476;6.046;2023-06-19T12:25:09;61604.63;;;-141.99;100.00
43820;BME280;67762;52.476;6.046;2023-06-19T12:27:37;61604.63;;;-141.99;100.00
43820;BME280;67762;52.476;6.046;2023-06-19T12:30:03;61604.63;;;-141.99;100.00
43820;BME280;67762;52.476;6.046;2023-06-19T12:32:31;61604.63;;;-141.99;100.00
43820;BME280;67762;52.476;6.046;2023-06-19T12:34:56;61604.63;;;-141.99;100.00
43820;BME280;67762;52.476;6.046;2023-06-19T12:37:22;61604.63;;;-141.99;100.00
43820;BME280;67762;52.476;6.046;2023-06-19T12:39:49;61604.63;;;-141.99;100.00
43820;BME280;67762;52.476;6.046;2023-06-19T12:42:15;61604.63;;;-141.99;100.00
43820;BME280;67762;52.476;6.046;2023-06-19T12:44:41;61604.63;;;-141.99;100.00
43820;BME280;67762;52.476;6.046;2023-06-19T12:47:08;61604.63;;;-141.99;100.00